Time;durP1;ratioP1;P1;durP2;ratioP2;P2;SDS_P1;SDS_P2;PMS_P1;PMS_P2;Temp;Humidity;BMP_temperature;BMP_pressure;BME280_temperature;BME280_humidity;BME280_pressure;Samples;Min_cycle;Max_cycle;Signal;HPM_P1;HPM_P2
2022/09/02 00:01:27;;;;;;;0.10;0.10;;;15.00;99.90;;;;;;5055925;28;20041;-74
2022/09/02 00:04:04;;;;;;;1.20;1.10;;;14.70;99.90;;;;;;5039693;28;20021;-78
2022/09/02 00:06:30;;;;;;;0.10;0.10;;;14.80;99.90;;;;;;5057607;28;20036;-75
2022/09/02 00:08:56;;;;;;;0.22;0.22;;;14.70;99.90;;;;;;5072213;28;20021;-78
2022/09/02 00:11:26;;;;;;;0.10;0.10;;;14.50;99.90;;;;;;5055257;28;20050;-75
2022/09/02 00:13:52;;;;;;;0.10;0.10;;;14.50;99.90;;;;;;5074077;28;20080;-75
2022/09/02 00:16:19;;;;;;;0.30;0.30;;;14.60;99.90;;;;;;5073000;28;20024;-75
2022/09/02 00:18:47;;;;;;;0.10;0.10;;;14.60;99.90;;;;;;5071754;28;20020;-75
2022/09/02 00:21:14;;;;;;;0.10;0.10;;;14.60;99.90;;;;;;5053782;28;20029;-75
2022/09/02 00:23:41;;;;;;;1.17;1.17;;;14.50;99.90;;;;;;5036989;28;20078;-73
2022/09/02 00:26:08;;;;;;;0.13;0.13;;;14.20;99.90;;;;;;5071416;28;20027;-73
2022/09/02 00:28:34;;;;;;;0.20;0.20;;;14.10;99.90;;;;;;5071593;28;20032;-73
2022/09/02 00:31:00;;;;;;;0.20;0.20;;;14.00;99.90;;;;;;5053484;28;20021;-73
2022/09/02 00:33:26;;;;;;;0.10;0.10;;;13.80;99.90;;;;;;5071288;28;20028;-73
2022/09/02 00:35:52;;;;;;;0.20;0.20;;;13.70;99.90;;;;;;5053503;28;20094;-73
2022/09/02 00:38:17;;;;;;;0.10;0.10;;;13.50;99.90;;;;;;5071502;28;20021;-73
2022/09/02 00:40:46;;;;;;;0.10;0.10;;;13.40;99.90;;;;;;5071444;28;20031;-73
2022/09/02 00:43:22;;;;;;;0.63;0.63;;;13.40;99.90;;;;;;5053265;28;20028;-73
2022/09/02 00:45:48;;;;;;;0.10;0.10;;;13.40;99.90;;;;;;5071086;28;20028;-73
2022/09/02 00:48:14;;;;;;;0.10;0.10;;;13.60;99.90;;;;;;5071651;28;20442;-73
2022/09/02 00:50:40;;;;;;;0.10;0.10;;;13.60;99.90;;;;;;5057133;28;20384;-73
2022/09/02 00:53:09;;;;;;;0.10;0.10;;;13.60;99.90;;;;;;5074813;28;20021;-73
2022/09/02 00:55:40;;;;;;;0.10;0.10;;;13.40;99.90;;;;;;5056912;28;20025;-73
2022/09/02 00:58:15;;;;;;;0.10;0.10;;;13.50;99.90;;;;;;5040296;28;20479;-73
2022/09/02 01:00:45;;;;;;;0.20;0.20;;;13.60;99.90;;;;;;5057016;28;20104;-73
2022/09/02 01:03:15;;;;;;;0.10;0.10;;;13.60;99.90;;;;;;5074692;28;20120;-73
2022/09/02 01:05:44;;;;;;;0.10;0.10;;;13.60;99.90;;;;;;5074561;28;20048;-73
2022/09/02 01:08:19;;;;;;;0.10;0.10;;;13.70;99.90;;;;;;5074714;28;20107;-73
2022/09/02 01:10:47;;;;;;;0.10;0.10;;;13.90;99.90;;;;;;5074587;28;20032;-73
2022/09/02 01:13:20;;;;;;;0.10;0.10;;;14.10;99.90;;;;;;5074475;28;20111;-73
2022/09/02 01:15:52;;;;;;;0.15;0.15;;;14.30;99.90;;;;;;5074442;28;20029;-73
2022/09/02 01:18:23;;;;;;;0.10;0.10;;;14.20;99.90;;;;;;5074433;28;20025;-73
2022/09/02 01:20:49;;;;;;;0.13;0.13;;;14.20;99.90;;;;;;5056616;28;20074;-73
2022/09/02 01:23:16;;;;;;;0.10;0.10;;;14.30;99.90;;;;;;5074058;28;20029;-73
2022/09/02 01:25:42;;;;;;;0.25;0.25;;;13.90;99.90;;;;;;5056358;28;20025;-73
2022/09/02 01:28:12;;;;;;;0.17;0.17;;;13.90;99.90;;;;;;5074188;28;20040;-73
2022/09/02 01:30:41;;;;;;;0.10;0.10;;;13.90;99.90;;;;;;5074386;28;20063;-74
2022/09/02 01:33:08;;;;;;;0.20;0.20;;;14.00;99.90;;;;;;5056123;28;20021;-73
2022/09/02 01:35:34;;;;;;;0.20;0.20;;;14.10;99.90;;;;;;5056125;28;20135;-74
2022/09/02 01:38:01;;;;;;;0.10;0.10;;;14.20;99.90;;;;;;5056000;28;20116;-73
2022/09/02 01:40:29;;;;;;;0.50;0.50;;;14.20;99.90;;;;;;5074062;28;20495;-73
2022/09/02 01:43:00;;;;;;;0.32;0.32;;;14.10;99.90;;;;;;5073813;28;20468;-73
2022/09/02 01:45:27;;;;;;;0.20;0.20;;;13.90;99.90;;;;;;5073839;28;20074;-73
2022/09/02 01:47:52;;;;;;;0.10;0.10;;;14.10;99.90;;;;;;5073936;28;20025;-73
2022/09/02 01:50:18;;;;;;;0.10;0.10;;;13.80;99.90;;;;;;5073790;28;20024;-73
2022/09/02 01:52:44;;;;;;;0.10;0.10;;;13.50;99.90;;;;;;5055733;28;20186;-73
2022/09/02 01:55:10;;;;;;;0.20;0.20;;;13.10;99.90;;;;;;5055622;28;20618;-73
2022/09/02 01:57:36;;;;;;;0.10;0.10;;;12.90;99.90;;;;;;5055864;28;20032;-73
2022/09/02 02:00:04;;;;;;;0.10;0.10;;;12.90;99.90;;;;;;5073651;28;20028;-73
2022/09/02 02:02:30;;;;;;;0.10;0.10;;;12.80;99.90;;;;;;5055670;28;20033;-73
2022/09/02 02:04:56;;;;;;;0.10;0.10;;;12.70;99.90;;;;;;5074117;28;20468;-73
2022/09/02 02:07:23;;;;;;;0.20;0.20;;;12.80;99.90;;;;;;5055675;28;20047;-73
2022/09/02 02:09:50;;;;;;;0.20;0.20;;;13.00;99.90;;;;;;5055766;28;20024;-73
2022/09/02 02:12:17;;;;;;;0.10;0.10;;;13.00;99.90;;;;;;5073289;28;20496;-73
2022/09/02 02:14:42;;;;;;;0.17;0.17;;;13.20;99.90;;;;;;5073425;28;20017;-73
2022/09/02 02:17:08;;;;;;;0.17;0.17;;;13.20;99.90;;;;;;5055246;28;20020;-73
2022/09/02 02:19:34;;;;;;;0.20;0.20;;;13.20;99.90;;;;;;5055314;28;20480;-73
2022/09/02 02:22:01;;;;;;;0.10;0.10;;;13.40;99.90;;;;;;5073142;28;20035;-73
2022/09/02 02:24:27;;;;;;;0.45;0.45;;;13.50;99.90;;;;;;5055219;28;20031;-73
2022/09/02 02:26:53;;;;;;;0.20;0.20;;;13.80;99.90;;;;;;5073017;28;20143;-73
2022/09/02 02:29:19;;;;;;;0.10;0.10;;;13.70;99.90;;;;;;5055304;28;20021;-73
2022/09/02 02:31:46;;;;;;;0.17;0.17;;;13.60;99.90;;;;;;5072969;28;20480;-73
2022/09/02 02:34:12;;;;;;;0.20;0.20;;;13.60;99.90;;;;;;5055063;28;20048;-73
2022/09/02 02:36:39;;;;;;;0.10;0.10;;;13.70;99.90;;;;;;5072825;28;20357;-73
2022/09/02 02:39:06;;;;;;;0.20;0.20;;;13.80;99.90;;;;;;5054859;28;20166;-73
2022/09/02 02:41:32;;;;;;;0.20;0.20;;;13.80;99.90;;;;;;5072705;28;20032;-73
2022/09/02 02:43:58;;;;;;;0.10;0.10;;;13.70;99.90;;;;;;5072640;28;20035;-74
2022/09/02 02:46:24;;;;;;;0.10;0.10;;;13.50;99.90;;;;;;5072586;28;20032;-73
2022/09/02 02:48:50;;;;;;;0.10;0.10;;;13.40;99.90;;;;;;5072667;28;20112;-73
2022/09/02 02:51:15;;;;;;;0.20;0.20;;;13.50;99.90;;;;;;5072648;28;20401;-73
2022/09/02 02:53:41;;;;;;;0.10;0.10;;;13.20;99.90;;;;;;5072564;28;20025;-73
2022/09/02 02:56:08;;;;;;;0.20;0.20;;;13.10;99.90;;;;;;5054504;28;20024;-73
2022/09/02 02:58:34;;;;;;;0.10;0.10;;;13.30;99.90;;;;;;5072585;28;20059;-73
2022/09/02 03:01:00;;;;;;;1.10;1.08;;;13.40;99.90;;;;;;5037971;28;20539;-73
2022/09/02 03:03:27;;;;;;;0.20;0.20;;;13.40;99.90;;;;;;5072183;28;20052;-73
2022/09/02 03:05:53;;;;;;;0.10;0.10;;;13.30;99.90;;;;;;5072278;28;20032;-73
2022/09/02 03:08:20;;;;;;;0.20;0.20;;;13.20;99.90;;;;;;5054635;28;20017;-74
2022/09/02 03:10:48;;;;;;;0.20;0.20;;;13.20;99.90;;;;;;5054578;28;20070;-74
2022/09/02 03:13:14;;;;;;;0.20;0.20;;;13.40;99.90;;;;;;5071997;28;20052;-73
2022/09/02 03:15:40;;;;;;;0.10;0.10;;;13.50;99.90;;;;;;5054230;28;20028;-73
2022/09/02 03:18:06;;;;;;;0.20;0.20;;;13.20;99.90;;;;;;5054351;28;20020;-72
2022/09/02 03:20:32;;;;;;;0.10;0.10;;;13.10;99.90;;;;;;5054353;28;20024;-73
2022/09/02 03:22:58;;;;;;;0.10;0.10;;;13.00;99.90;;;;;;5072091;28;20028;-73
2022/09/02 03:25:27;;;;;;;0.93;0.55;;;13.00;99.90;;;;;;5071967;28;20028;-73
2022/09/02 03:27:53;;;;;;;0.10;0.10;;;13.00;99.90;;;;;;5072176;28;20028;-73
2022/09/02 03:30:26;;;;;;;0.10;0.10;;;12.90;99.90;;;;;;5054016;28;20025;-73
2022/09/02 03:32:53;;;;;;;0.20;0.20;;;12.80;99.90;;;;;;5072076;28;20044;-73
2022/09/02 03:35:20;;;;;;;0.10;0.10;;;12.80;99.90;;;;;;5071902;28;20387;-73
2022/09/02 03:37:47;;;;;;;0.20;0.20;;;12.90;99.90;;;;;;5072098;28;20021;-73
2022/09/02 03:40:16;;;;;;;0.10;0.10;;;13.10;99.90;;;;;;5071982;28;20036;-73
2022/09/02 03:42:42;;;;;;;0.15;0.15;;;13.00;99.90;;;;;;5053843;28;20031;-74
2022/09/02 03:45:09;;;;;;;0.20;0.20;;;12.90;99.90;;;;;;5071692;28;20123;-74
2022/09/02 03:47:36;;;;;;;0.10;0.10;;;13.10;99.90;;;;;;5071838;28;20016;-74
2022/09/02 03:50:03;;;;;;;0.10;0.10;;;13.20;99.90;;;;;;5053965;28;20430;-74
2022/09/02 03:52:29;;;;;;;0.10;0.10;;;13.30;99.90;;;;;;5071760;28;20017;-73
2022/09/02 03:54:55;;;;;;;0.15;0.15;;;13.40;99.90;;;;;;5053933;28;20052;-73
2022/09/02 03:57:24;;;;;;;0.10;0.10;;;13.60;99.90;;;;;;5071809;28;20028;-73
2022/09/02 03:59:50;;;;;;;0.25;0.25;;;13.70;99.90;;;;;;5053899;28;20028;-73
2022/09/02 04:02:17;;;;;;;0.10;0.10;;;13.70;99.90;;;;;;5053621;28;20043;-74
2022/09/02 04:04:43;;;;;;;0.20;0.20;;;13.80;99.90;;;;;;5071895;28;20021;-74
2022/09/02 04:07:09;;;;;;;2.58;2.33;;;13.70;99.90;;;;;;5053761;28;20063;-74
2022/09/02 04:09:34;;;;;;;0.30;0.30;;;13.30;99.90;;;;;;5071644;28;20101;-74
2022/09/02 04:12:01;;;;;;;0.10;0.10;;;13.00;99.90;;;;;;5071476;28;20476;-74
2022/09/02 04:14:27;;;;;;;0.25;0.25;;;12.60;99.90;;;;;;5053810;28;20038;-73
2022/09/02 04:16:53;;;;;;;0.10;0.10;;;12.50;99.90;;;;;;5053438;28;20119;-74
2022/09/02 04:19:19;;;;;;;0.13;0.13;;;12.60;99.90;;;;;;5071630;28;20102;-74
2022/09/02 04:21:44;;;;;;;0.20;0.20;;;12.90;99.90;;;;;;5053573;28;20063;-74
2022/09/02 04:24:11;;;;;;;0.80;0.80;;;12.90;99.90;;;;;;5073326;28;20020;-74
2022/09/02 04:26:38;;;;;;;1.02;0.93;;;12.90;99.90;;;;;;5075209;28;20020;-74
2022/09/02 04:29:05;;;;;;;0.10;0.10;;;12.90;99.90;;;;;;5040872;28;20072;-74
2022/09/02 04:31:31;;;;;;;0.10;0.10;;;12.90;99.90;;;;;;5057470;28;20483;-74
2022/09/02 04:33:57;;;;;;;0.20;0.20;;;12.90;99.90;;;;;;5057346;28;20032;-74
2022/09/02 04:36:24;;;;;;;0.10;0.10;;;12.90;99.90;;;;;;5057051;28;20028;-74
2022/09/02 04:38:52;;;;;;;0.70;0.60;;;12.80;99.90;;;;;;5075121;28;20025;-74
2022/09/02 04:41:23;;;;;;;1.70;1.65;;;12.80;99.90;;;;;;5074970;28;20048;-74
2022/09/02 04:46:18;;;;;;;0.68;0.68;;;13.00;99.90;;;;;;5031789;28;20052;-74
2022/09/02 04:48:46;;;;;;;0.35;0.35;;;13.00;99.90;;;;;;5035133;28;20045;-74
2022/09/02 04:51:20;;;;;;;0.20;0.20;;;12.80;99.90;;;;;;5035022;28;20045;-74
2022/09/02 04:53:47;;;;;;;0.15;0.15;;;12.60;99.90;;;;;;5015616;28;20021;-74
2022/09/02 04:56:16;;;;;;;0.88;0.50;;;12.60;99.90;;;;;;5015023;28;20061;-74
2022/09/02 04:58:43;;;;;;;0.10;0.10;;;12.70;99.90;;;;;;5014957;28;20029;-74
2022/09/02 05:01:13;;;;;;;0.30;0.30;;;12.90;99.90;;;;;;5015086;28;20495;-74
2022/09/02 05:03:39;;;;;;;0.10;0.10;;;13.00;99.90;;;;;;5014789;28;20521;-74
2022/09/02 05:06:11;;;;;;;2.55;1.95;;;13.00;99.90;;;;;;5014620;28;20025;-74
2022/09/02 05:08:37;;;;;;;0.30;0.30;;;13.10;99.90;;;;;;5014784;28;20080;-74
2022/09/02 05:11:08;;;;;;;0.10;0.10;;;13.10;99.90;;;;;;5014879;28;20032;-73
2022/09/02 05:13:34;;;;;;;0.20;0.20;;;12.80;99.90;;;;;;4979793;28;20069;-74
2022/09/02 05:16:00;;;;;;;0.77;0.77;;;12.80;99.90;;;;;;4993666;28;20557;-73
2022/09/02 05:18:26;;;;;;;0.10;0.10;;;12.70;99.90;;;;;;4991580;28;20042;-74
2022/09/02 05:20:52;;;;;;;0.10;0.10;;;12.70;99.90;;;;;;4992588;28;20113;-73
2022/09/02 05:23:18;;;;;;;0.17;0.17;;;12.70;99.90;;;;;;5007968;28;20097;-73
2022/09/02 05:25:44;;;;;;;0.10;0.10;;;12.90;99.90;;;;;;5003405;28;20540;-73
2022/09/02 05:28:10;;;;;;;1.48;1.48;;;13.10;99.90;;;;;;5004438;28;20030;-74
2022/09/02 05:30:38;;;;;;;0.77;0.68;;;13.00;99.90;;;;;;5006878;28;20160;-73
2022/09/02 05:33:05;;;;;;;2.80;0.88;;;13.00;99.90;;;;;;5008118;28;20091;-73
2022/09/02 05:35:31;;;;;;;0.77;0.77;;;13.10;99.90;;;;;;5007546;28;20033;-74
2022/09/02 05:37:57;;;;;;;0.30;0.30;;;13.20;99.90;;;;;;5009220;28;20041;-73
2022/09/02 05:40:23;;;;;;;1.95;1.77;;;12.90;99.90;;;;;;5011722;28;20401;-73
2022/09/02 05:42:49;;;;;;;0.20;0.20;;;12.80;99.90;;;;;;4992956;28;20406;-74
2022/09/02 05:45:15;;;;;;;0.57;0.57;;;12.50;99.90;;;;;;5001458;28;20033;-74
2022/09/02 05:47:42;;;;;;;0.47;0.47;;;12.20;99.90;;;;;;4983240;28;20034;-74
2022/09/02 05:50:08;;;;;;;0.40;0.40;;;12.10;99.90;;;;;;4984068;28;20574;-74
2022/09/02 05:52:34;;;;;;;0.10;0.10;;;12.40;99.90;;;;;;5002506;28;20041;-73
2022/09/02 05:55:02;;;;;;;1.77;1.15;;;12.60;99.90;;;;;;5002272;28;20018;-74
2022/09/02 05:57:28;;;;;;;0.10;0.10;;;12.70;99.90;;;;;;5001318;28;20486;-73
2022/09/02 05:59:55;;;;;;;0.20;0.20;;;12.80;99.90;;;;;;5001477;28;20080;-73
2022/09/02 06:02:23;;;;;;;0.10;0.10;;;12.90;99.90;;;;;;5000449;28;20452;-74
2022/09/02 06:04:51;;;;;;;0.13;0.13;;;13.10;99.90;;;;;;5002036;28;20565;-73
2022/09/02 06:07:19;;;;;;;0.10;0.10;;;13.30;99.90;;;;;;5002886;28;20072;-73
2022/09/02 06:09:45;;;;;;;2.72;1.70;;;13.50;99.90;;;;;;5001798;28;20125;-74
2022/09/02 06:12:13;;;;;;;0.10;0.10;;;13.40;99.90;;;;;;5002063;28;20022;-74
2022/09/02 06:14:40;;;;;;;0.10;0.10;;;13.20;99.90;;;;;;5000829;28;20022;-74
2022/09/02 06:17:06;;;;;;;0.10;0.10;;;13.30;99.90;;;;;;5001925;28;20030;-73
2022/09/02 06:19:33;;;;;;;0.63;0.55;;;13.60;99.90;;;;;;5001639;28;20052;-74
2022/09/02 06:22:01;;;;;;;0.15;0.15;;;13.50;99.90;;;;;;4967955;28;20401;-73
2022/09/02 06:24:28;;;;;;;0.25;0.25;;;13.50;99.90;;;;;;4983703;28;20030;-73
2022/09/02 06:26:54;;;;;;;1.15;0.82;;;13.40;99.90;;;;;;5001448;28;20053;-73
2022/09/02 06:29:22;;;;;;;0.20;0.20;;;13.30;99.90;;;;;;5000795;28;21055;-74
2022/09/02 06:31:49;;;;;;;1.15;1.05;;;13.30;99.90;;;;;;5001361;28;20042;-74
2022/09/02 06:34:17;;;;;;;0.30;0.30;;;13.40;99.90;;;;;;4966847;28;20068;-73
2022/09/02 06:36:45;;;;;;;0.80;0.80;;;13.20;99.90;;;;;;4983276;28;20030;-74
2022/09/02 06:39:13;;;;;;;0.40;0.40;;;13.20;99.90;;;;;;5002402;28;20113;-74
2022/09/02 06:41:41;;;;;;;0.43;0.43;;;13.10;99.90;;;;;;5001539;28;20057;-74
2022/09/02 06:44:09;;;;;;;0.20;0.20;;;13.20;99.90;;;;;;4982947;28;20041;-73
2022/09/02 06:46:38;;;;;;;1.30;1.20;;;13.30;99.90;;;;;;4981758;28;20037;-73
2022/09/02 06:49:06;;;;;;;1.38;1.20;;;13.50;99.90;;;;;;4983707;28;20080;-74
2022/09/02 06:51:37;;;;;;;0.63;0.63;;;13.30;99.90;;;;;;5000778;28;20438;-74
2022/09/02 06:54:05;;;;;;;;;;;13.40;99.90;;;;;;5002239;28;20033;-74
2022/09/02 06:56:31;;;;;;;2.30;1.75;;;13.40;99.90;;;;;;4983174;28;19913;-74
2022/09/02 06:58:57;;;;;;;0.47;0.47;;;13.50;99.90;;;;;;5000785;28;20490;-74
2022/09/02 07:01:26;;;;;;;0.25;0.25;;;13.50;99.90;;;;;;5000356;28;20044;-74
2022/09/02 07:06:40;;;;;;;0.52;0.52;;;13.50;99.90;;;;;;4998651;28;20521;-73
2022/09/02 07:09:08;;;;;;;0.20;0.20;;;13.50;99.90;;;;;;5001174;28;20429;-73
2022/09/02 07:11:34;;;;;;;1.13;0.68;;;13.50;99.90;;;;;;5000732;28;20076;-73
2022/09/02 07:14:01;;;;;;;0.15;0.15;;;13.60;99.90;;;;;;4998594;28;20030;-73
2022/09/02 07:16:33;;;;;;;0.10;0.10;;;13.60;99.90;;;;;;4999930;28;20126;-73
2022/09/02 07:19:00;;;;;;;0.10;0.10;;;13.70;99.90;;;;;;5000401;28;20372;-73
2022/09/02 07:21:30;;;;;;;0.20;0.17;;;13.60;99.90;;;;;;5000238;28;20030;-73
2022/09/02 07:24:00;;;;;;;0.13;0.13;;;13.80;99.90;;;;;;5000439;28;20073;-73
2022/09/02 07:26:26;;;;;;;2.83;1.65;;;13.90;99.90;;;;;;4982224;28;20053;-73
2022/09/02 07:28:52;;;;;;;0.28;0.28;;;14.00;99.90;;;;;;4982919;28;20049;-73
2022/09/02 07:31:18;;;;;;;0.30;0.30;;;13.90;99.90;;;;;;4982577;28;20026;-73
2022/09/02 07:33:44;;;;;;;0.20;0.20;;;13.70;99.90;;;;;;5001082;28;20030;-73
2022/09/02 07:36:12;;;;;;;0.55;0.32;;;13.70;99.90;;;;;;5000637;28;20036;-73
2022/09/02 07:38:39;;;;;;;0.38;0.38;;;13.90;99.90;;;;;;4982198;28;20030;-72
2022/09/02 07:41:06;;;;;;;0.35;0.35;;;13.70;99.90;;;;;;4982621;28;20034;-73
2022/09/02 07:43:32;;;;;;;0.45;0.45;;;13.70;99.90;;;;;;5000725;28;20034;-73
2022/09/02 07:45:59;;;;;;;0.13;0.13;;;13.70;99.90;;;;;;4988136;28;20048;-73
2022/09/02 07:48:27;;;;;;;0.38;0.38;;;13.70;99.90;;;;;;5010337;28;20029;-73
2022/09/02 07:50:53;;;;;;;0.30;0.30;;;13.80;99.90;;;;;;5003932;28;20030;-72
2022/09/02 07:53:19;;;;;;;0.10;0.10;;;13.70;99.90;;;;;;5002039;28;20459;-73
2022/09/02 07:55:46;;;;;;;0.60;0.60;;;13.90;99.90;;;;;;4989411;28;20037;-72
2022/09/02 07:58:13;;;;;;;0.30;0.30;;;13.90;99.90;;;;;;4969101;28;20277;-72
2022/09/02 08:00:40;;;;;;;0.10;0.10;;;14.00;99.90;;;;;;5013991;28;20502;-72
2022/09/02 08:03:07;;;;;;;0.10;0.10;;;14.10;99.90;;;;;;5007906;28;20485;-73
2022/09/02 08:05:34;;;;;;;0.52;0.52;;;14.30;99.90;;;;;;5003582;28;20034;-72
2022/09/02 08:08:00;;;;;;;0.40;0.40;;;14.30;99.90;;;;;;4978229;28;20037;-72
2022/09/02 08:10:28;;;;;;;0.47;0.47;;;14.50;99.90;;;;;;5014972;28;20029;-73
2022/09/02 08:12:56;;;;;;;0.30;0.30;;;14.50;99.90;;;;;;4992996;28;20036;-72
2022/09/02 08:15:23;;;;;;;0.30;0.30;;;14.60;99.90;;;;;;5007280;28;20053;-73
2022/09/02 08:17:49;;;;;;;0.10;0.10;;;14.90;99.90;;;;;;5007181;28;20033;-72
2022/09/02 08:20:16;;;;;;;0.32;0.32;;;15.10;99.90;;;;;;5010366;28;20569;-72
2022/09/02 08:22:43;;;;;;;0.10;0.10;;;15.10;99.90;;;;;;5013484;28;20069;-73
2022/09/02 08:25:09;;;;;;;0.40;0.30;;;15.00;99.90;;;;;;5009709;28;20479;-73
2022/09/02 08:27:36;;;;;;;0.28;0.28;;;15.10;99.90;;;;;;5008995;28;20087;-73
2022/09/02 08:30:09;;;;;;;0.35;0.35;;;15.30;99.90;;;;;;5015152;28;20374;-73
2022/09/02 08:32:35;;;;;;;0.13;0.13;;;15.50;99.90;;;;;;5009214;28;20117;-74
2022/09/02 08:35:03;;;;;;;0.52;0.52;;;15.60;99.90;;;;;;5005571;28;20632;-72
2022/09/02 08:37:30;;;;;;;4.57;0.40;;;15.80;99.90;;;;;;5009299;28;20030;-74
2022/09/02 08:39:57;;;;;;;0.10;0.10;;;16.10;99.90;;;;;;5005902;28;20026;-72
2022/09/02 08:42:28;;;;;;;0.63;0.50;;;16.50;99.90;;;;;;5004458;28;20393;-75
2022/09/02 08:45:03;;;;;;;0.50;0.50;;;16.80;99.90;;;;;;5002740;28;20405;-73
2022/09/02 08:47:32;;;;;;;2.70;1.27;;;16.90;99.90;;;;;;5002560;28;20338;-72
2022/09/02 08:50:14;;;;;;;0.28;0.28;;;17.00;99.90;;;;;;5003073;28;20065;-73
2022/09/02 08:53:09;;;;;;;0.63;0.63;;;17.20;99.90;;;;;;5002853;28;20029;-73
2022/09/02 08:55:57;;;;;;;0.88;0.73;;;17.50;99.90;;;;;;5003387;28;20116;-73
2022/09/02 08:58:28;;;;;;;0.68;0.68;;;17.70;99.90;;;;;;5002658;28;20042;-73
2022/09/02 09:01:23;;;;;;;0.30;0.30;;;17.70;99.90;;;;;;5004572;28;20104;-72
2022/09/02 09:04:15;;;;;;;0.45;0.40;;;17.90;99.90;;;;;;5003304;28;20046;-73
2022/09/02 09:07:02;;;;;;;12.20;4.20;;;18.20;99.90;;;;;;5001938;28;20061;-73
2022/09/02 09:10:00;;;;;;;0.10;0.10;;;18.20;99.90;;;;;;5002417;28;20033;-73
2022/09/02 09:12:56;;;;;;;2.50;1.27;;;18.60;99.90;;;;;;4984256;28;20030;-73
2022/09/02 09:15:54;;;;;;;0.35;0.35;;;19.20;99.90;;;;;;5003841;28;20038;-73
2022/09/02 09:18:43;;;;;;;0.20;0.20;;;19.60;99.90;;;;;;5003136;28;20034;-73
2022/09/02 09:21:09;;;;;;;0.17;0.17;;;19.90;99.90;;;;;;4985418;28;20083;-73
2022/09/02 09:23:38;;;;;;;0.10;0.10;;;20.10;99.90;;;;;;5003419;28;20402;-73
2022/09/02 09:26:17;;;;;;;0.10;0.10;;;20.00;99.90;;;;;;4985944;28;20429;-73
2022/09/02 09:28:46;;;;;;;0.30;0.30;;;20.30;99.90;;;;;;5002629;28;20052;-73
2022/09/02 09:31:28;;;;;;;0.30;0.30;;;20.80;99.90;;;;;;4985338;28;20030;-73
2022/09/02 09:34:08;;;;;;;0.10;0.10;;;21.20;99.90;;;;;;5002039;28;20528;-73
2022/09/02 09:36:40;;;;;;;1.08;0.98;;;21.60;99.90;;;;;;5003537;28;20065;-73
2022/09/02 09:39:24;;;;;;;;;;;21.60;99.90;;;;;;5003556;28;20029;-73
2022/09/02 09:41:52;;;;;;;0.30;0.30;;;21.60;99.90;;;;;;5002880;28;19959;-73
2022/09/02 09:44:39;;;;;;;0.30;0.30;;;21.90;99.80;;;;;;5001861;28;20046;-73
2022/09/02 09:47:08;;;;;;;0.70;0.70;;;22.20;98.80;;;;;;4984141;28;20033;-73
2022/09/02 09:49:36;;;;;;;1.65;1.30;;;22.50;97.20;;;;;;4983532;28;20048;-74
2022/09/02 09:52:03;;;;;;;0.30;0.30;;;22.60;96.80;;;;;;5000656;28;20036;-73
2022/09/02 09:54:28;;;;;;;0.40;0.17;;;22.30;97.10;;;;;;5000054;28;20030;-74
2022/09/02 09:56:56;;;;;;;0.88;0.80;;;22.60;95.80;;;;;;5000574;28;20030;-73
2022/09/02 09:59:40;;;;;;;0.43;0.43;;;22.70;94.10;;;;;;4998787;28;20116;-73
2022/09/02 10:02:24;;;;;;;0.00;0.00;;;23.30;93.80;;;;;;4999990;28;20038;-74
2022/09/02 10:05:08;;;;;;;0.82;0.73;;;23.50;91.30;;;;;;5000164;28;20132;-73
2022/09/02 10:07:42;;;;;;;0.30;0.30;;;23.30;90.10;;;;;;4982239;28;20394;-73
2022/09/02 10:10:22;;;;;;;0.10;0.10;;;23.70;88.50;;;;;;4981817;28;20030;-74
2022/09/02 10:12:50;;;;;;;0.30;0.30;;;23.80;89.30;;;;;;4966543;28;20442;-74
2022/09/02 10:15:28;;;;;;;0.45;0.35;;;24.30;84.90;;;;;;5000225;28;20034;-74
2022/09/02 10:18:13;;;;;;;0.50;0.40;;;23.80;83.60;;;;;;4997648;28;20057;-74
2022/09/02 10:20:51;;;;;;;0.32;0.32;;;23.80;85.10;;;;;;4998579;28;20477;-74
2022/09/02 10:23:33;;;;;;;1.08;0.73;;;23.90;83.80;;;;;;5008082;28;20644;-74
2022/09/02 10:26:07;;;;;;;0.00;0.00;;;24.00;83.70;;;;;;5016370;28;20436;-75
2022/09/02 10:28:43;;;;;;;0.40;0.40;;;24.30;83.30;;;;;;5014785;28;20033;-73
2022/09/02 10:31:22;;;;;;;0.10;0.10;;;24.20;82.10;;;;;;5032686;28;20045;-74
2022/09/02 10:34:24;;;;;;;2.33;1.08;;;24.20;80.70;;;;;;5018543;28;20025;-74
2022/09/02 10:37:06;;;;;;;0.30;0.30;;;24.10;82.00;;;;;;5032063;28;20526;-74
2022/09/02 10:39:48;;;;;;;0.10;0.10;;;24.20;81.10;;;;;;5024800;28;20116;-74
2022/09/02 10:42:45;;;;;;;0.15;0.15;;;24.60;79.20;;;;;;4995107;28;20034;-74
2022/09/02 10:45:33;;;;;;;0.45;0.45;;;25.10;75.70;;;;;;5012362;28;20033;-73
2022/09/02 10:48:39;;;;;;;0.40;0.40;;;25.00;74.80;;;;;;5030006;22;20128;-91
2022/09/02 10:51:32;;;;;;;0.00;0.00;;;25.20;73.60;;;;;;5023918;28;20087;-94
2022/09/02 10:54:13;;;;;;;0.10;0.10;;;25.60;71.80;;;;;;5023159;28;20037;-93
2022/09/02 10:56:50;;;;;;;0.30;0.30;;;25.50;70.80;;;;;;5039074;28;20033;-93
2022/09/02 10:59:43;;;;;;;0.57;0.57;;;25.60;69.50;;;;;;5040897;28;20025;-94
2022/09/02 11:02:40;;;;;;;0.88;0.55;;;25.60;67.80;;;;;;5056301;28;20094;-93
2022/09/02 11:05:27;;;;;;;0.08;0.08;;;25.80;66.90;;;;;;5038841;28;20032;-94
2022/09/02 11:08:06;;;;;;;0.38;0.32;;;25.90;65.50;;;;;;5030609;28;20110;-94
2022/09/02 11:10:44;;;;;;;;;;;26.10;67.40;;;;;;5039242;28;20416;-91
2022/09/02 11:13:45;;;;;;;0.55;0.55;;;25.50;67.90;;;;;;5057395;28;19904;-93
2022/09/02 11:16:44;;;;;;;0.77;0.40;;;25.40;69.10;;;;;;5044658;28;20048;-94
2022/09/02 11:19:34;;;;;;;0.60;0.60;;;25.70;67.10;;;;;;5061020;28;20013;-94
2022/09/02 11:22:38;;;;;;;0.00;0.00;;;25.60;66.80;;;;;;5060072;28;20017;-94
2022/09/02 11:25:21;;;;;;;0.00;0.00;;;25.60;65.20;;;;;;5039996;28;20029;-91
2022/09/02 11:28:17;;;;;;;0.38;0.38;;;25.70;64.80;;;;;;5049618;28;20032;-93
2022/09/02 11:30:50;;;;;;;0.47;0.47;;;25.70;64.70;;;;;;5040411;28;20032;-94
2022/09/02 11:33:40;;;;;;;0.40;0.40;;;26.20;63.80;;;;;;5055588;28;20351;-93
2022/09/02 11:36:11;;;;;;;0.28;0.22;;;26.20;62.70;;;;;;5041482;28;20047;-93
2022/09/02 11:39:20;;;;;;;0.10;0.10;;;26.00;62.90;;;;;;5039355;28;20393;-93
2022/09/02 11:42:07;;;;;;;0.38;0.38;;;25.80;62.90;;;;;;4936136;29;20036;-93
2022/09/02 11:45:04;;;;;;;1.38;0.52;;;25.70;63.00;;;;;;4944726;28;20060;-91
2022/09/02 11:48:02;;;;;;;0.30;0.30;;;26.00;61.00;;;;;;5005178;28;20414;-91
2022/09/02 11:50:54;;;;;;;0.00;0.00;;;26.20;61.90;;;;;;5012882;28;20032;-93
2022/09/02 11:54:00;;;;;;;0.43;0.43;;;25.80;62.70;;;;;;5029126;28;20022;-91
2022/09/02 11:56:40;;;;;;;0.00;0.00;;;26.00;62.20;;;;;;5038529;28;20029;-93
2022/09/02 11:59:42;;;;;;;2.53;0.40;;;26.00;62.60;;;;;;5034983;28;20029;-93
2022/09/02 12:02:30;;;;;;;0.20;0.20;;;25.90;61.20;;;;;;5017180;28;20087;-92
2022/09/02 12:05:30;;;;;;;0.32;0.32;;;26.00;61.10;;;;;;5020586;28;20044;-93
2022/09/02 12:08:34;;;;;;;0.10;0.10;;;26.00;59.90;;;;;;5020045;28;20033;-92
2022/09/02 12:11:28;;;;;;;0.38;0.30;;;25.80;59.80;;;;;;5019812;28;20029;-91
2022/09/02 12:14:02;;;;;;;0.10;0.10;;;25.50;61.50;;;;;;5021400;28;20029;-94
2022/09/02 12:19:42;;;;;;;0.43;0.35;;;25.00;61.70;;;;;;5027081;28;20041;-92
2022/09/02 12:22:18;;;;;;;0.28;0.28;;;24.70;62.90;;;;;;5018090;28;20075;-92
2022/09/02 12:25:06;;;;;;;0.10;0.10;;;24.70;62.40;;;;;;5031627;28;21425;-91
2022/09/02 12:27:46;;;;;;;0.00;0.00;;;24.60;61.70;;;;;;4999926;28;20045;-93
2022/09/02 12:30:54;;;;;;;0.20;0.20;;;24.90;62.30;;;;;;5001054;28;20030;-92
2022/09/02 12:33:51;;;;;;;0.88;0.47;;;24.90;62.80;;;;;;5021775;28;20053;-92
2022/09/02 12:36:36;;;;;;;0.20;0.20;;;24.70;61.90;;;;;;5021801;28;20037;-91
2022/09/02 12:39:34;;;;;;;0.20;0.20;;;24.50;62.10;;;;;;5017634;28;20452;-92
2022/09/02 12:42:11;;;;;;;0.10;0.10;;;24.20;63.50;;;;;;5020485;28;20052;-92
2022/09/02 12:45:12;;;;;;;0.40;0.17;;;23.90;64.90;;;;;;5022021;28;20040;-91
2022/09/02 12:48:02;;;;;;;1.20;1.00;;;24.00;62.30;;;;;;5030393;28;20053;-92
2022/09/02 12:50:34;;;;;;;0.40;0.40;;;23.90;64.00;;;;;;5023369;28;20577;-92
2022/09/02 12:53:30;;;;;;;0.03;0.03;;;24.00;62.80;;;;;;5025969;28;20084;-93
2022/09/02 12:56:09;;;;;;;0.10;0.10;;;23.80;63.70;;;;;;5022075;28;20589;-92
2022/09/02 12:59:06;;;;;;;0.68;0.68;;;23.90;64.00;;;;;;5048062;28;20036;-92
2022/09/02 13:02:03;;;;;;;0.10;0.10;;;23.70;64.20;;;;;;5016993;28;20045;-92
2022/09/02 13:05:03;;;;;;;0.20;0.20;;;23.70;64.10;;;;;;5021557;28;20814;-93
2022/09/02 13:08:06;;;;;;;0.63;0.43;;;23.50;63.70;;;;;;5025079;28;20119;-92
2022/09/02 13:11:12;;;;;;;0.25;0.25;;;23.30;64.50;;;;;;5017888;28;20043;-93
2022/09/02 13:13:55;;;;;;;0.13;0.13;;;23.60;65.30;;;;;;5031669;28;20128;-93
2022/09/02 13:16:43;;;;;;;0.13;0.13;;;23.40;64.60;;;;;;5021182;28;20033;-92
2022/09/02 13:19:38;;;;;;;0.00;0.00;;;23.40;64.80;;;;;;5022592;28;20371;-92
2022/09/02 13:22:38;;;;;;;;;;;;;;;;;;;;;
2022/09/02 13:25:39;;;;;;;0.13;0.13;;;23.20;64.60;;;;;;5037370;28;20059;-92
2022/09/02 13:28:32;;;;;;;0.05;0.05;;;23.10;65.50;;;;;;5021332;28;20037;-92